sensor_id;sensor_type;location;lat;lon;timestamp;P1;durP1;ratioP1;P2;durP2;ratioP2
37955;SDS011;23776;51.592;7.180;2022-09-09T00:01:05;0.40;;;0.20;;
37955;SDS011;23776;51.592;7.180;2022-09-09T00:03:44;1.70;;;0.47;;
37955;SDS011;23776;51.592;7.180;2022-09-09T00:06:21;0.40;;;0.30;;
37955;SDS011;23776;51.592;7.180;2022-09-09T00:11:40;0.68;;;0.57;;
37955;SDS011;23776;51.592;7.180;2022-09-09T00:14:13;2.45;;;0.60;;
37955;SDS011;23776;51.592;7.180;2022-09-09T00:16:50;1.20;;;0.47;;
37955;SDS011;23776;51.592;7.180;2022-09-09T00:19:24;0.63;;;0.50;;
37955;SDS011;23776;51.592;7.180;2022-09-09T00:24:43;1.38;;;0.60;;
37955;SDS011;23776;51.592;7.180;2022-09-09T00:27:20;0.98;;;0.60;;
37955;SDS011;23776;51.592;7.180;2022-09-09T00:30:33;1.02;;;0.63;;
37955;SDS011;23776;51.592;7.180;2022-09-09T00:32:36;2.83;;;0.82;;
37955;SDS011;23776;51.592;7.180;2022-09-09T00:35:03;1.50;;;0.73;;
37955;SDS011;23776;51.592;7.180;2022-09-09T00:37:43;2.10;;;0.82;;
37955;SDS011;23776;51.592;7.180;2022-09-09T00:46:10;3.60;;;0.90;;
37955;SDS011;23776;51.592;7.180;2022-09-09T01:02:16;1.42;;;0.60;;
37955;SDS011;23776;51.592;7.180;2022-09-09T01:04:53;3.22;;;1.00;;
37955;SDS011;23776;51.592;7.180;2022-09-09T01:07:19;2.78;;;0.75;;
37955;SDS011;23776;51.592;7.180;2022-09-09T01:09:50;1.73;;;0.60;;
37955;SDS011;23776;51.592;7.180;2022-09-09T01:12:29;3.63;;;0.70;;
37955;SDS011;23776;51.592;7.180;2022-09-09T01:15:22;1.95;;;0.80;;
37955;SDS011;23776;51.592;7.180;2022-09-09T01:21:29;1.77;;;0.80;;
37955;SDS011;23776;51.592;7.180;2022-09-09T01:26:47;2.17;;;0.80;;
37955;SDS011;23776;51.592;7.180;2022-09-09T01:29:16;1.30;;;0.80;;
37955;SDS011;23776;51.592;7.180;2022-09-09T01:31:59;0.77;;;0.60;;
37955;SDS011;23776;51.592;7.180;2022-09-09T01:34:28;0.82;;;0.65;;
37955;SDS011;23776;51.592;7.180;2022-09-09T01:37:02;6.82;;;0.75;;
37955;SDS011;23776;51.592;7.180;2022-09-09T01:39:31;6.15;;;0.93;;
37955;SDS011;23776;51.592;7.180;2022-09-09T01:42:01;4.25;;;1.00;;
37955;SDS011;23776;51.592;7.180;2022-09-09T01:44:28;3.72;;;1.10;;
37955;SDS011;23776;51.592;7.180;2022-09-09T01:46:55;1.55;;;0.88;;
37955;SDS011;23776;51.592;7.180;2022-09-09T01:49:21;3.10;;;0.82;;
37955;SDS011;23776;51.592;7.180;2022-09-09T01:51:51;3.58;;;1.10;;
37955;SDS011;23776;51.592;7.180;2022-09-09T01:54:20;3.88;;;1.40;;
37955;SDS011;23776;51.592;7.180;2022-09-09T01:57:02;1.58;;;1.10;;
37955;SDS011;23776;51.592;7.180;2022-09-09T02:02:28;2.35;;;1.05;;
37955;SDS011;23776;51.592;7.180;2022-09-09T02:05:05;2.10;;;1.10;;
37955;SDS011;23776;51.592;7.180;2022-09-09T02:10:24;5.32;;;1.15;;
37955;SDS011;23776;51.592;7.180;2022-09-09T02:12:59;5.47;;;1.47;;
37955;SDS011;23776;51.592;7.180;2022-09-09T02:18:13;3.90;;;1.63;;
37955;SDS011;23776;51.592;7.180;2022-09-09T02:20:45;3.55;;;1.65;;
37955;SDS011;23776;51.592;7.180;2022-09-09T02:23:11;3.38;;;1.90;;
37955;SDS011;23776;51.592;7.180;2022-09-09T02:25:39;2.15;;;1.60;;
37955;SDS011;23776;51.592;7.180;2022-09-09T02:28:06;4.53;;;2.10;;
37955;SDS011;23776;51.592;7.180;2022-09-09T02:30:35;3.58;;;1.63;;
37955;SDS011;23776;51.592;7.180;2022-09-09T02:33:03;4.25;;;1.70;;
37955;SDS011;23776;51.592;7.180;2022-09-09T02:35:31;3.63;;;1.67;;
37955;SDS011;23776;51.592;7.180;2022-09-09T02:38:02;3.25;;;1.40;;
37955;SDS011;23776;51.592;7.180;2022-09-09T02:40:31;4.95;;;2.03;;
37955;SDS011;23776;51.592;7.180;2022-09-09T02:42:57;4.65;;;1.80;;
37955;SDS011;23776;51.592;7.180;2022-09-09T02:45:25;2.33;;;1.40;;
37955;SDS011;23776;51.592;7.180;2022-09-09T02:48:01;3.47;;;1.67;;
37955;SDS011;23776;51.592;7.180;2022-09-09T02:51:04;5.75;;;1.55;;
37955;SDS011;23776;51.592;7.180;2022-09-09T02:56:32;8.32;;;2.00;;
37955;SDS011;23776;51.592;7.180;2022-09-09T02:59:05;4.78;;;1.88;;
37955;SDS011;23776;51.592;7.180;2022-09-09T03:01:30;4.90;;;2.47;;
37955;SDS011;23776;51.592;7.180;2022-09-09T03:03:56;9.98;;;2.53;;
37955;SDS011;23776;51.592;7.180;2022-09-09T03:06:22;6.53;;;2.20;;
37955;SDS011;23776;51.592;7.180;2022-09-09T03:08:47;6.85;;;2.00;;
37955;SDS011;23776;51.592;7.180;2022-09-09T03:11:14;6.43;;;2.47;;
37955;SDS011;23776;51.592;7.180;2022-09-09T03:13:41;5.63;;;2.45;;
37955;SDS011;23776;51.592;7.180;2022-09-09T03:16:06;4.28;;;2.08;;
37955;SDS011;23776;51.592;7.180;2022-09-09T03:18:32;6.32;;;2.25;;
37955;SDS011;23776;51.592;7.180;2022-09-09T03:20:59;5.55;;;2.22;;
37955;SDS011;23776;51.592;7.180;2022-09-09T03:23:25;7.00;;;2.20;;
37955;SDS011;23776;51.592;7.180;2022-09-09T03:25:51;3.33;;;1.60;;
37955;SDS011;23776;51.592;7.180;2022-09-09T03:28:17;5.60;;;2.08;;
37955;SDS011;23776;51.592;7.180;2022-09-09T03:30:43;4.10;;;2.03;;
37955;SDS011;23776;51.592;7.180;2022-09-09T03:33:09;5.30;;;2.15;;
37955;SDS011;23776;51.592;7.180;2022-09-09T03:35:34;5.82;;;2.25;;
37955;SDS011;23776;51.592;7.180;2022-09-09T03:38:01;3.65;;;2.10;;
37955;SDS011;23776;51.592;7.180;2022-09-09T03:40:26;5.38;;;1.95;;
37955;SDS011;23776;51.592;7.180;2022-09-09T03:42:52;3.53;;;1.77;;
37955;SDS011;23776;51.592;7.180;2022-09-09T03:45:17;7.95;;;2.10;;
37955;SDS011;23776;51.592;7.180;2022-09-09T03:47:43;6.32;;;2.15;;
37955;SDS011;23776;51.592;7.180;2022-09-09T03:50:09;9.30;;;2.40;;
37955;SDS011;23776;51.592;7.180;2022-09-09T03:52:37;2.97;;;1.67;;
37955;SDS011;23776;51.592;7.180;2022-09-09T03:55:04;7.35;;;1.92;;
37955;SDS011;23776;51.592;7.180;2022-09-09T03:57:30;4.53;;;1.88;;
37955;SDS011;23776;51.592;7.180;2022-09-09T03:59:56;5.45;;;2.50;;
37955;SDS011;23776;51.592;7.180;2022-09-09T04:02:23;6.43;;;1.67;;
37955;SDS011;23776;51.592;7.180;2022-09-09T04:04:48;3.55;;;1.70;;
37955;SDS011;23776;51.592;7.180;2022-09-09T04:07:14;2.95;;;1.70;;
37955;SDS011;23776;51.592;7.180;2022-09-09T04:09:40;5.57;;;1.92;;
37955;SDS011;23776;51.592;7.180;2022-09-09T04:12:06;3.03;;;1.60;;
37955;SDS011;23776;51.592;7.180;2022-09-09T04:14:32;5.72;;;1.90;;
37955;SDS011;23776;51.592;7.180;2022-09-09T04:16:57;2.53;;;1.50;;
37955;SDS011;23776;51.592;7.180;2022-09-09T04:19:24;3.17;;;1.55;;
37955;SDS011;23776;51.592;7.180;2022-09-09T04:21:50;6.50;;;1.70;;
37955;SDS011;23776;51.592;7.180;2022-09-09T04:24:16;6.15;;;1.80;;
37955;SDS011;23776;51.592;7.180;2022-09-09T04:26:42;6.07;;;1.67;;
37955;SDS011;23776;51.592;7.180;2022-09-09T04:29:08;7.65;;;2.05;;
37955;SDS011;23776;51.592;7.180;2022-09-09T04:31:34;4.55;;;1.63;;
37955;SDS011;23776;51.592;7.180;2022-09-09T04:34:00;3.28;;;1.65;;
37955;SDS011;23776;51.592;7.180;2022-09-09T04:36:30;5.03;;;1.77;;
37955;SDS011;23776;51.592;7.180;2022-09-09T04:38:57;5.32;;;1.77;;
37955;SDS011;23776;51.592;7.180;2022-09-09T04:41:22;4.35;;;1.75;;
37955;SDS011;23776;51.592;7.180;2022-09-09T04:43:48;3.08;;;1.85;;
37955;SDS011;23776;51.592;7.180;2022-09-09T04:46:14;2.75;;;1.33;;
37955;SDS011;23776;51.592;7.180;2022-09-09T04:48:42;7.53;;;1.75;;
37955;SDS011;23776;51.592;7.180;2022-09-09T04:51:09;7.05;;;2.15;;
37955;SDS011;23776;51.592;7.180;2022-09-09T04:53:37;4.97;;;1.63;;
37955;SDS011;23776;51.592;7.180;2022-09-09T04:56:04;7.38;;;2.08;;
37955;SDS011;23776;51.592;7.180;2022-09-09T04:58:32;5.18;;;1.73;;
37955;SDS011;23776;51.592;7.180;2022-09-09T05:01:07;4.22;;;1.60;;
37955;SDS011;23776;51.592;7.180;2022-09-09T05:03:43;4.65;;;1.63;;
37955;SDS011;23776;51.592;7.180;2022-09-09T05:06:16;4.15;;;1.88;;
37955;SDS011;23776;51.592;7.180;2022-09-09T05:08:44;8.38;;;2.50;;
37955;SDS011;23776;51.592;7.180;2022-09-09T05:11:29;6.70;;;2.10;;
37955;SDS011;23776;51.592;7.180;2022-09-09T05:13:57;4.70;;;2.05;;
37955;SDS011;23776;51.592;7.180;2022-09-09T05:16:22;7.95;;;2.03;;
37955;SDS011;23776;51.592;7.180;2022-09-09T05:18:48;6.20;;;1.80;;
37955;SDS011;23776;51.592;7.180;2022-09-09T05:21:16;8.02;;;1.63;;
37955;SDS011;23776;51.592;7.180;2022-09-09T05:23:42;6.88;;;1.38;;
37955;SDS011;23776;51.592;7.180;2022-09-09T05:26:11;6.72;;;2.15;;
37955;SDS011;23776;51.592;7.180;2022-09-09T05:28:42;6.93;;;1.98;;
37955;SDS011;23776;51.592;7.180;2022-09-09T05:31:09;6.82;;;1.70;;
37955;SDS011;23776;51.592;7.180;2022-09-09T05:33:37;5.70;;;1.90;;
37955;SDS011;23776;51.592;7.180;2022-09-09T05:36:06;8.73;;;1.77;;
37955;SDS011;23776;51.592;7.180;2022-09-09T05:38:34;11.27;;;2.08;;
37955;SDS011;23776;51.592;7.180;2022-09-09T05:41:01;6.38;;;2.20;;
37955;SDS011;23776;51.592;7.180;2022-09-09T05:43:27;4.53;;;1.98;;
37955;SDS011;23776;51.592;7.180;2022-09-09T05:46:00;5.50;;;1.83;;
37955;SDS011;23776;51.592;7.180;2022-09-09T05:48:30;9.77;;;2.15;;
37955;SDS011;23776;51.592;7.180;2022-09-09T05:50:57;7.00;;;2.22;;
37955;SDS011;23776;51.592;7.180;2022-09-09T05:53:24;4.40;;;1.70;;
37955;SDS011;23776;51.592;7.180;2022-09-09T05:55:50;11.30;;;2.55;;
37955;SDS011;23776;51.592;7.180;2022-09-09T05:58:15;9.82;;;2.15;;
37955;SDS011;23776;51.592;7.180;2022-09-09T06:00:41;10.52;;;2.03;;
37955;SDS011;23776;51.592;7.180;2022-09-09T06:03:10;4.32;;;1.92;;
37955;SDS011;23776;51.592;7.180;2022-09-09T06:05:36;11.07;;;2.20;;
37955;SDS011;23776;51.592;7.180;2022-09-09T06:08:02;6.15;;;1.88;;
37955;SDS011;23776;51.592;7.180;2022-09-09T06:10:28;7.32;;;1.98;;
37955;SDS011;23776;51.592;7.180;2022-09-09T06:12:53;6.57;;;2.10;;
37955;SDS011;23776;51.592;7.180;2022-09-09T06:15:19;7.60;;;2.15;;
37955;SDS011;23776;51.592;7.180;2022-09-09T06:17:45;7.18;;;1.60;;
37955;SDS011;23776;51.592;7.180;2022-09-09T06:20:10;10.23;;;3.38;;
37955;SDS011;23776;51.592;7.180;2022-09-09T06:22:39;11.02;;;2.58;;
37955;SDS011;23776;51.592;7.180;2022-09-09T06:25:06;10.25;;;2.22;;
37955;SDS011;23776;51.592;7.180;2022-09-09T06:27:32;4.47;;;1.73;;
37955;SDS011;23776;51.592;7.180;2022-09-09T06:29:58;8.82;;;2.00;;
37955;SDS011;23776;51.592;7.180;2022-09-09T06:32:23;4.43;;;1.90;;
37955;SDS011;23776;51.592;7.180;2022-09-09T06:34:49;7.45;;;2.00;;
37955;SDS011;23776;51.592;7.180;2022-09-09T06:37:15;5.10;;;1.92;;
37955;SDS011;23776;51.592;7.180;2022-09-09T06:39:41;6.72;;;1.98;;
37955;SDS011;23776;51.592;7.180;2022-09-09T06:42:06;9.98;;;2.17;;
37955;SDS011;23776;51.592;7.180;2022-09-09T06:44:33;9.82;;;1.63;;
37955;SDS011;23776;51.592;7.180;2022-09-09T06:46:59;4.47;;;1.80;;
37955;SDS011;23776;51.592;7.180;2022-09-09T06:49:25;4.55;;;1.95;;
37955;SDS011;23776;51.592;7.180;2022-09-09T06:51:50;7.95;;;2.28;;
37955;SDS011;23776;51.592;7.180;2022-09-09T06:54:17;6.05;;;1.80;;
37955;SDS011;23776;51.592;7.180;2022-09-09T06:56:43;5.32;;;1.60;;
37955;SDS011;23776;51.592;7.180;2022-09-09T06:59:10;9.02;;;2.00;;
37955;SDS011;23776;51.592;7.180;2022-09-09T07:01:41;5.38;;;1.60;;
37955;SDS011;23776;51.592;7.180;2022-09-09T07:04:12;6.97;;;1.73;;
37955;SDS011;23776;51.592;7.180;2022-09-09T07:06:39;6.25;;;1.65;;
37955;SDS011;23776;51.592;7.180;2022-09-09T07:09:09;5.72;;;2.22;;
37955;SDS011;23776;51.592;7.180;2022-09-09T07:11:38;11.23;;;1.98;;
37955;SDS011;23776;51.592;7.180;2022-09-09T07:14:06;6.80;;;1.60;;
37955;SDS011;23776;51.592;7.180;2022-09-09T07:16:32;10.45;;;2.10;;
37955;SDS011;23776;51.592;7.180;2022-09-09T07:18:58;7.78;;;2.03;;
37955;SDS011;23776;51.592;7.180;2022-09-09T07:21:25;13.30;;;2.10;;
37955;SDS011;23776;51.592;7.180;2022-09-09T07:23:52;11.48;;;2.17;;
37955;SDS011;23776;51.592;7.180;2022-09-09T07:26:20;9.35;;;2.03;;
37955;SDS011;23776;51.592;7.180;2022-09-09T07:28:48;5.90;;;2.00;;
37955;SDS011;23776;51.592;7.180;2022-09-09T07:31:18;5.30;;;1.52;;
37955;SDS011;23776;51.592;7.180;2022-09-09T07:33:55;5.32;;;1.75;;
37955;SDS011;23776;51.592;7.180;2022-09-09T07:36:22;3.75;;;1.30;;
37955;SDS011;23776;51.592;7.180;2022-09-09T07:38:51;2.53;;;1.33;;
37955;SDS011;23776;51.592;7.180;2022-09-09T07:41:20;6.47;;;2.35;;
37955;SDS011;23776;51.592;7.180;2022-09-09T07:43:48;1.98;;;1.00;;
37955;SDS011;23776;51.592;7.180;2022-09-09T07:46:16;5.00;;;1.50;;
37955;SDS011;23776;51.592;7.180;2022-09-09T07:48:48;7.25;;;1.38;;
37955;SDS011;23776;51.592;7.180;2022-09-09T07:53:47;8.20;;;1.65;;
37955;SDS011;23776;51.592;7.180;2022-09-09T07:56:17;10.32;;;1.48;;
37955;SDS011;23776;51.592;7.180;2022-09-09T07:58:46;5.38;;;1.40;;
37955;SDS011;23776;51.592;7.180;2022-09-09T08:01:14;4.95;;;1.30;;
37955;SDS011;23776;51.592;7.180;2022-09-09T08:03:43;6.35;;;1.65;;
37955;SDS011;23776;51.592;7.180;2022-09-09T08:06:10;5.57;;;1.73;;
37955;SDS011;23776;51.592;7.180;2022-09-09T08:08:37;5.60;;;1.40;;
37955;SDS011;23776;51.592;7.180;2022-09-09T08:11:13;13.18;;;1.60;;
37955;SDS011;23776;51.592;7.180;2022-09-09T08:13:40;3.97;;;1.40;;
37955;SDS011;23776;51.592;7.180;2022-09-09T08:16:12;6.10;;;1.20;;
37955;SDS011;23776;51.592;7.180;2022-09-09T08:18:39;8.48;;;1.50;;
37955;SDS011;23776;51.592;7.180;2022-09-09T08:23:39;8.63;;;1.50;;
37955;SDS011;23776;51.592;7.180;2022-09-09T08:26:10;7.45;;;1.42;;
37955;SDS011;23776;51.592;7.180;2022-09-09T08:28:37;4.25;;;1.40;;
37955;SDS011;23776;51.592;7.180;2022-09-09T08:31:15;6.07;;;1.42;;
37955;SDS011;23776;51.592;7.180;2022-09-09T08:33:42;9.27;;;2.35;;
37955;SDS011;23776;51.592;7.180;2022-09-09T08:36:10;5.60;;;1.13;;
37955;SDS011;23776;51.592;7.180;2022-09-09T08:38:40;5.95;;;1.55;;
37955;SDS011;23776;51.592;7.180;2022-09-09T08:52:30;5.93;;;1.10;;
37955;SDS011;23776;51.592;7.180;2022-09-09T08:57:49;8.32;;;1.52;;
37955;SDS011;23776;51.592;7.180;2022-09-09T09:00:17;5.30;;;1.60;;
37955;SDS011;23776;51.592;7.180;2022-09-09T09:02:46;3.80;;;1.48;;
37955;SDS011;23776;51.592;7.180;2022-09-09T09:10:31;7.53;;;1.90;;
37955;SDS011;23776;51.592;7.180;2022-09-09T09:13:14;5.38;;;1.20;;
37955;SDS011;23776;51.592;7.180;2022-09-09T09:18:15;5.95;;;1.80;;
37955;SDS011;23776;51.592;7.180;2022-09-09T09:20:45;4.55;;;1.13;;
37955;SDS011;23776;51.592;7.180;2022-09-09T09:23:35;7.07;;;1.35;;
37955;SDS011;23776;51.592;7.180;2022-09-09T09:26:13;7.80;;;1.40;;
37955;SDS011;23776;51.592;7.180;2022-09-09T09:28:39;5.72;;;1.40;;
37955;SDS011;23776;51.592;7.180;2022-09-09T09:31:06;7.55;;;1.77;;
37955;SDS011;23776;51.592;7.180;2022-09-09T09:36:15;4.72;;;1.10;;
37955;SDS011;23776;51.592;7.180;2022-09-09T09:38:57;6.72;;;1.42;;
37955;SDS011;23776;51.592;7.180;2022-09-09T09:43:56;8.93;;;1.92;;
37955;SDS011;23776;51.592;7.180;2022-09-09T09:46:24;7.25;;;1.80;;
37955;SDS011;23776;51.592;7.180;2022-09-09T09:48:57;2.38;;;1.23;;
37955;SDS011;23776;51.592;7.180;2022-09-09T09:51:28;6.50;;;1.75;;
37955;SDS011;23776;51.592;7.180;2022-09-09T09:54:03;6.22;;;1.63;;
37955;SDS011;23776;51.592;7.180;2022-09-09T09:56:46;6.60;;;1.60;;
37955;SDS011;23776;51.592;7.180;2022-09-09T10:01:53;7.20;;;1.60;;
37955;SDS011;23776;51.592;7.180;2022-09-09T10:04:20;3.88;;;1.67;;
37955;SDS011;23776;51.592;7.180;2022-09-09T10:06:51;3.97;;;1.02;;
37955;SDS011;23776;51.592;7.180;2022-09-09T10:09:24;8.30;;;2.10;;
37955;SDS011;23776;51.592;7.180;2022-09-09T10:14:33;6.28;;;1.25;;
37955;SDS011;23776;51.592;7.180;2022-09-09T10:29:55;6.80;;;1.40;;
37955;SDS011;23776;51.592;7.180;2022-09-09T10:32:38;6.78;;;1.83;;
37955;SDS011;23776;51.592;7.180;2022-09-09T10:35:30;4.93;;;1.55;;
37955;SDS011;23776;51.592;7.180;2022-09-09T10:38:15;5.85;;;1.30;;
37955;SDS011;23776;51.592;7.180;2022-09-09T10:46:03;4.93;;;0.90;;
37955;SDS011;23776;51.592;7.180;2022-09-09T10:48:54;6.20;;;1.50;;
37955;SDS011;23776;51.592;7.180;2022-09-09T11:00:05;5.35;;;1.10;;
37955;SDS011;23776;51.592;7.180;2022-09-09T11:02:39;4.70;;;1.48;;
37955;SDS011;23776;51.592;7.180;2022-09-09T11:05:14;3.17;;;0.85;;
37955;SDS011;23776;51.592;7.180;2022-09-09T11:08:01;4.68;;;1.10;;
37955;SDS011;23776;51.592;7.180;2022-09-09T11:13:56;3.28;;;0.80;;
37955;SDS011;23776;51.592;7.180;2022-09-09T11:19:15;2.75;;;0.77;;
37955;SDS011;23776;51.592;7.180;2022-09-09T11:21:59;2.67;;;0.90;;
37955;SDS011;23776;51.592;7.180;2022-09-09T11:24:51;4.00;;;1.05;;
37955;SDS011;23776;51.592;7.180;2022-09-09T11:27:35;3.38;;;0.77;;
37955;SDS011;23776;51.592;7.180;2022-09-09T11:30:18;2.50;;;0.90;;
37955;SDS011;23776;51.592;7.180;2022-09-09T11:35:29;7.15;;;1.33;;
37955;SDS011;23776;51.592;7.180;2022-09-09T11:38:25;5.70;;;1.10;;
37955;SDS011;23776;51.592;7.180;2022-09-09T11:40:59;6.40;;;1.10;;
37955;SDS011;23776;51.592;7.180;2022-09-09T11:43:31;1.45;;;0.73;;
37955;SDS011;23776;51.592;7.180;2022-09-09T11:46:03;2.80;;;0.80;;
37955;SDS011;23776;51.592;7.180;2022-09-09T11:48:35;2.67;;;0.90;;
37955;SDS011;23776;51.592;7.180;2022-09-09T11:53:51;3.63;;;1.38;;
37955;SDS011;23776;51.592;7.180;2022-09-09T11:56:32;3.90;;;1.08;;
37955;SDS011;23776;51.592;7.180;2022-09-09T11:59:23;1.77;;;0.82;;
37955;SDS011;23776;51.592;7.180;2022-09-09T12:01:58;4.60;;;1.02;;
37955;SDS011;23776;51.592;7.180;2022-09-09T12:04:33;4.32;;;0.93;;
37955;SDS011;23776;51.592;7.180;2022-09-09T12:07:03;4.53;;;1.20;;
37955;SDS011;23776;51.592;7.180;2022-09-09T12:09:51;5.07;;;0.90;;
37955;SDS011;23776;51.592;7.180;2022-09-09T12:14:58;6.47;;;1.10;;
37955;SDS011;23776;51.592;7.180;2022-09-09T12:17:41;4.35;;;0.90;;
37955;SDS011;23776;51.592;7.180;2022-09-09T12:20:13;2.38;;;0.77;;
37955;SDS011;23776;51.592;7.180;2022-09-09T12:28:19;6.63;;;1.48;;
37955;SDS011;23776;51.592;7.180;2022-09-09T12:31:05;4.63;;;0.90;;
37955;SDS011;23776;51.592;7.180;2022-09-09T12:33:35;2.63;;;1.08;;
37955;SDS011;23776;51.592;7.180;2022-09-09T12:36:03;3.72;;;0.75;;
37955;SDS011;23776;51.592;7.180;2022-09-09T12:38:34;4.07;;;1.02;;
37955;SDS011;23776;51.592;7.180;2022-09-09T12:41:01;6.55;;;1.38;;
37955;SDS011;23776;51.592;7.180;2022-09-09T12:43:28;2.58;;;0.73;;
37955;SDS011;23776;51.592;7.180;2022-09-09T12:46:01;2.58;;;0.90;;
37955;SDS011;23776;51.592;7.180;2022-09-09T12:48:38;5.05;;;1.23;;
37955;SDS011;23776;51.592;7.180;2022-09-09T12:51:19;2.63;;;0.68;;
37955;SDS011;23776;51.592;7.180;2022-09-09T12:53:50;2.95;;;1.02;;
37955;SDS011;23776;51.592;7.180;2022-09-09T12:56:23;3.28;;;0.80;;
37955;SDS011;23776;51.592;7.180;2022-09-09T12:58:52;5.47;;;1.02;;
37955;SDS011;23776;51.592;7.180;2022-09-09T13:01:23;3.80;;;0.85;;
37955;SDS011;23776;51.592;7.180;2022-09-09T13:03:51;2.95;;;1.20;;
37955;SDS011;23776;51.592;7.180;2022-09-09T13:06:21;5.55;;;0.82;;
37955;SDS011;23776;51.592;7.180;2022-09-09T13:08:48;3.15;;;1.05;;
37955;SDS011;23776;51.592;7.180;2022-09-09T13:11:16;1.98;;;0.80;;
37955;SDS011;23776;51.592;7.180;2022-09-09T13:13:54;6.10;;;0.95;;
37955;SDS011;23776;51.592;7.180;2022-09-09T13:16:31;2.45;;;0.98;;
37955;SDS011;23776;51.592;7.180;2022-09-09T13:18:59;3.13;;;1.00;;
37955;SDS011;23776;51.592;7.180;2022-09-09T13:21:34;4.40;;;0.77;;
37955;SDS011;23776;51.592;7.180;2022-09-09T13:24:03;3.13;;;0.90;;
37955;SDS011;23776;51.592;7.180;2022-09-09T13:26:32;4.88;;;0.73;;
37955;SDS011;23776;51.592;7.180;2022-09-09T13:29:16;3.47;;;1.05;;
37955;SDS011;23776;51.592;7.180;2022-09-09T13:31:45;1.80;;;0.85;;
37955;SDS011;23776;51.592;7.180;2022-09-09T13:34:25;8.25;;;1.55;;
37955;SDS011;23776;51.592;7.180;2022-09-09T13:36:59;3.55;;;1.23;;
37955;SDS011;23776;51.592;7.180;2022-09-09T13:39:27;7.00;;;1.30;;
37955;SDS011;23776;51.592;7.180;2022-09-09T13:41:53;5.95;;;1.42;;
37955;SDS011;23776;51.592;7.180;2022-09-09T13:44:27;8.98;;;2.03;;
37955;SDS011;23776;51.592;7.180;2022-09-09T13:46:59;8.63;;;2.45;;
37955;SDS011;23776;51.592;7.180;2022-09-09T13:49:27;7.05;;;2.63;;
37955;SDS011;23776;51.592;7.180;2022-09-09T13:52:08;13.38;;;3.83;;
37955;SDS011;23776;51.592;7.180;2022-09-09T13:54:38;9.30;;;2.22;;
37955;SDS011;23776;51.592;7.180;2022-09-09T13:57:05;6.25;;;1.65;;
37955;SDS011;23776;51.592;7.180;2022-09-09T13:59:39;4.63;;;1.70;;
37955;SDS011;23776;51.592;7.180;2022-09-09T14:02:05;13.75;;;2.42;;
37955;SDS011;23776;51.592;7.180;2022-09-09T14:04:31;6.47;;;1.95;;
37955;SDS011;23776;51.592;7.180;2022-09-09T14:06:57;8.45;;;2.13;;
37955;SDS011;23776;51.592;7.180;2022-09-09T14:09:23;7.82;;;1.95;;
37955;SDS011;23776;51.592;7.180;2022-09-09T14:11:48;12.27;;;2.20;;
37955;SDS011;23776;51.592;7.180;2022-09-09T14:14:14;5.07;;;1.80;;
37955;SDS011;23776;51.592;7.180;2022-09-09T14:16:39;7.75;;;1.90;;
37955;SDS011;23776;51.592;7.180;2022-09-09T14:19:05;8.15;;;1.65;;
37955;SDS011;23776;51.592;7.180;2022-09-09T14:21:33;7.47;;;1.90;;
37955;SDS011;23776;51.592;7.180;2022-09-09T14:23:58;3.55;;;1.10;;
37955;SDS011;23776;51.592;7.180;2022-09-09T14:26:24;3.95;;;1.60;;
37955;SDS011;23776;51.592;7.180;2022-09-09T14:28:51;5.35;;;1.13;;
37955;SDS011;23776;51.592;7.180;2022-09-09T14:31:17;6.80;;;1.05;;
37955;SDS011;23776;51.592;7.180;2022-09-09T14:33:43;3.97;;;1.60;;
37955;SDS011;23776;51.592;7.180;2022-09-09T14:36:10;3.30;;;0.80;;
37955;SDS011;23776;51.592;7.180;2022-09-09T14:38:36;2.47;;;0.60;;
37955;SDS011;23776;51.592;7.180;2022-09-09T14:41:07;5.43;;;1.17;;
37955;SDS011;23776;51.592;7.180;2022-09-09T14:43:37;1.83;;;0.77;;
37955;SDS011;23776;51.592;7.180;2022-09-09T14:46:07;5.60;;;0.70;;
37955;SDS011;23776;51.592;7.180;2022-09-09T14:48:34;2.33;;;0.80;;
37955;SDS011;23776;51.592;7.180;2022-09-09T14:51:20;1.60;;;0.70;;
37955;SDS011;23776;51.592;7.180;2022-09-09T14:53:47;5.63;;;1.60;;
37955;SDS011;23776;51.592;7.180;2022-09-09T14:56:14;3.35;;;1.00;;
37955;SDS011;23776;51.592;7.180;2022-09-09T14:58:41;1.65;;;0.90;;
37955;SDS011;23776;51.592;7.180;2022-09-09T15:01:09;4.25;;;0.95;;
37955;SDS011;23776;51.592;7.180;2022-09-09T15:03:40;4.40;;;1.30;;
37955;SDS011;23776;51.592;7.180;2022-09-09T15:06:09;5.22;;;1.27;;
37955;SDS011;23776;51.592;7.180;2022-09-09T15:08:37;4.35;;;1.20;;
37955;SDS011;23776;51.592;7.180;2022-09-09T15:11:05;3.53;;;1.20;;
37955;SDS011;23776;51.592;7.180;2022-09-09T15:13:35;3.88;;;1.10;;
37955;SDS011;23776;51.592;7.180;2022-09-09T15:16:05;5.28;;;1.23;;
37955;SDS011;23776;51.592;7.180;2022-09-09T15:18:32;5.32;;;1.30;;
37955;SDS011;23776;51.592;7.180;2022-09-09T15:20:59;7.88;;;1.50;;
37955;SDS011;23776;51.592;7.180;2022-09-09T15:23:26;6.60;;;3.20;;
37955;SDS011;23776;51.592;7.180;2022-09-09T15:25:55;12.05;;;5.10;;
37955;SDS011;23776;51.592;7.180;2022-09-09T15:28:21;10.65;;;3.40;;
37955;SDS011;23776;51.592;7.180;2022-09-09T15:30:48;10.60;;;2.88;;
37955;SDS011;23776;51.592;7.180;2022-09-09T15:33:15;6.63;;;1.92;;
37955;SDS011;23776;51.592;7.180;2022-09-09T15:35:40;6.57;;;1.38;;
37955;SDS011;23776;51.592;7.180;2022-09-09T15:38:06;8.40;;;2.03;;
37955;SDS011;23776;51.592;7.180;2022-09-09T15:40:31;8.80;;;2.67;;
37955;SDS011;23776;51.592;7.180;2022-09-09T15:42:57;3.15;;;1.45;;
37955;SDS011;23776;51.592;7.180;2022-09-09T15:45:23;6.35;;;1.30;;
37955;SDS011;23776;51.592;7.180;2022-09-09T15:47:49;2.78;;;1.20;;
37955;SDS011;23776;51.592;7.180;2022-09-09T15:50:15;3.15;;;0.90;;
37955;SDS011;23776;51.592;7.180;2022-09-09T15:52:41;2.28;;;0.85;;
37955;SDS011;23776;51.592;7.180;2022-09-09T15:55:06;3.50;;;1.20;;
37955;SDS011;23776;51.592;7.180;2022-09-09T15:57:33;3.05;;;0.88;;
37955;SDS011;23776;51.592;7.180;2022-09-09T16:00:01;4.20;;;1.00;;
37955;SDS011;23776;51.592;7.180;2022-09-09T16:02:28;1.00;;;0.60;;
37955;SDS011;23776;51.592;7.180;2022-09-09T16:04:55;2.50;;;0.85;;
37955;SDS011;23776;51.592;7.180;2022-09-09T16:07:22;3.00;;;0.95;;
37955;SDS011;23776;51.592;7.180;2022-09-09T16:09:48;4.25;;;1.23;;
37955;SDS011;23776;51.592;7.180;2022-09-09T16:12:16;2.03;;;0.90;;
37955;SDS011;23776;51.592;7.180;2022-09-09T16:14:42;2.97;;;0.82;;
37955;SDS011;23776;51.592;7.180;2022-09-09T16:17:07;3.53;;;0.60;;
37955;SDS011;23776;51.592;7.180;2022-09-09T16:19:33;1.42;;;0.93;;
37955;SDS011;23776;51.592;7.180;2022-09-09T16:21:59;5.55;;;1.05;;
37955;SDS011;23776;51.592;7.180;2022-09-09T16:24:25;4.05;;;0.88;;
37955;SDS011;23776;51.592;7.180;2022-09-09T16:26:53;3.80;;;0.90;;
37955;SDS011;23776;51.592;7.180;2022-09-09T16:29:19;3.03;;;0.80;;
37955;SDS011;23776;51.592;7.180;2022-09-09T16:31:46;3.28;;;0.90;;
37955;SDS011;23776;51.592;7.180;2022-09-09T16:34:12;3.53;;;0.80;;
37955;SDS011;23776;51.592;7.180;2022-09-09T16:36:40;3.05;;;0.98;;
37955;SDS011;23776;51.592;7.180;2022-09-09T16:39:07;5.45;;;0.98;;
37955;SDS011;23776;51.592;7.180;2022-09-09T16:41:34;2.45;;;0.82;;
37955;SDS011;23776;51.592;7.180;2022-09-09T16:44:03;2.55;;;1.02;;
37955;SDS011;23776;51.592;7.180;2022-09-09T16:46:31;3.53;;;0.70;;
37955;SDS011;23776;51.592;7.180;2022-09-09T16:48:59;3.25;;;0.65;;
37955;SDS011;23776;51.592;7.180;2022-09-09T16:51:26;3.08;;;0.70;;
37955;SDS011;23776;51.592;7.180;2022-09-09T16:53:58;3.60;;;0.88;;
37955;SDS011;23776;51.592;7.180;2022-09-09T16:56:27;3.17;;;1.08;;
37955;SDS011;23776;51.592;7.180;2022-09-09T16:58:58;1.70;;;0.77;;
37955;SDS011;23776;51.592;7.180;2022-09-09T17:01:29;1.80;;;1.00;;
37955;SDS011;23776;51.592;7.180;2022-09-09T17:03:58;2.25;;;1.00;;
37955;SDS011;23776;51.592;7.180;2022-09-09T17:06:26;2.58;;;0.90;;
37955;SDS011;23776;51.592;7.180;2022-09-09T17:08:54;2.67;;;0.95;;
37955;SDS011;23776;51.592;7.180;2022-09-09T17:11:22;1.40;;;0.70;;